createdAt,value
2016-05-10T00:00:56.017Z,1007.71
2016-05-10T00:01:52.957Z,1007.74
2016-05-10T00:02:52.913Z,1007.71
2016-05-10T00:03:55.885Z,1007.71
2016-05-10T00:04:55.825Z,1007.69
2016-05-10T00:05:55.780Z,1007.68
2016-05-10T00:06:52.737Z,1007.65
2016-05-10T00:07:52.693Z,1007.65
2016-05-10T00:08:52.648Z,1007.63
2016-05-10T00:09:52.604Z,1007.62
2016-05-10T00:10:52.763Z,1007.62
2016-05-10T00:11:55.735Z,1007.61
2016-05-10T00:12:52.498Z,1007.6
2016-05-10T00:13:52.699Z,1007.64
2016-05-10T00:14:52.493Z,1007.59
2016-05-10T00:15:52.490Z,1007.61
2016-05-10T00:16:52.502Z,1007.59
2016-05-10T00:17:52.482Z,1007.62
2016-05-10T00:18:52.436Z,1007.59
2016-05-10T00:19:52.422Z,1007.59
2016-05-10T00:20:52.393Z,1007.62
2016-05-10T00:21:52.347Z,1007.58
2016-05-10T00:22:52.343Z,1007.6
2016-05-10T00:23:52.288Z,1007.57
2016-05-10T00:24:52.235Z,1007.59
2016-05-10T00:25:55.211Z,1007.59
2016-05-10T00:26:52.156Z,1007.57
2016-05-10T00:27:52.115Z,1007.5
2016-05-10T00:28:52.073Z,1007.52
2016-05-10T00:29:55.047Z,1007.55
2016-05-10T00:30:52.004Z,1007.52
2016-05-10T00:31:51.962Z,1007.52
2016-05-10T00:32:51.918Z,1007.49
2016-05-10T00:33:54.876Z,1007.51
2016-05-10T00:34:51.832Z,1007.49
2016-05-10T00:35:51.804Z,1007.48
2016-05-10T00:36:51.745Z,1007.48
2016-05-10T00:37:51.701Z,1007.48
2016-05-10T00:38:51.658Z,1007.43
2016-05-10T00:39:54.816Z,1007.49
2016-05-10T00:40:51.569Z,1007.47
2016-05-10T00:41:51.526Z,1007.42
2016-05-10T00:42:51.466Z,1007.43
2016-05-10T00:43:51.438Z,1007.45
2016-05-10T00:44:52.409Z,1007.44
2016-05-10T00:45:51.350Z,1007.43
2016-05-10T00:46:51.305Z,1007.41
2016-05-10T00:47:51.261Z,1007.4
2016-05-10T00:48:51.217Z,1007.42
2016-05-10T00:49:51.173Z,1007.4
2016-05-10T00:50:51.129Z,1007.37
2016-05-10T00:51:51.084Z,1007.36
2016-05-10T00:52:51.040Z,1007.32
2016-05-10T00:53:51.012Z,1007.32
2016-05-10T00:54:50.952Z,1007.32
2016-05-10T00:55:50.908Z,1007.34
2016-05-10T00:56:50.863Z,1007.31
2016-05-10T00:57:50.820Z,1007.29
2016-05-10T00:58:50.790Z,1007.28
2016-05-10T00:59:53.746Z,1007.31
2016-05-10T01:00:50.687Z,1007.29
2016-05-10T01:01:50.658Z,1007.29
2016-05-10T01:02:50.598Z,1007.3
2016-05-10T01:03:50.554Z,1007.28
2016-05-10T01:04:50.526Z,1007.29
2016-05-10T01:05:50.512Z,1007.26
2016-05-10T01:06:50.422Z,1007.25
2016-05-10T01:07:50.409Z,1007.2
2016-05-10T01:08:50.349Z,1007.18
2016-05-10T01:09:50.305Z,1007.16
2016-05-10T01:10:50.245Z,1007.16
2016-05-10T01:11:50.216Z,1007.14
2016-05-10T01:12:50.172Z,1007.15
2016-05-10T01:13:50.113Z,1007.16
2016-05-10T01:14:50.287Z,1007.11
2016-05-10T01:15:50.039Z,1007.15
2016-05-10T01:16:49.996Z,1007.1
2016-05-10T01:17:49.952Z,1007.12
2016-05-10T01:18:52.922Z,1007.1
2016-05-10T01:19:52.879Z,1007.1
2016-05-10T01:20:52.835Z,1007.13
2016-05-10T01:21:52.837Z,1007.11
2016-05-10T01:22:52.746Z,1007.1
2016-05-10T01:23:52.686Z,1007.09
2016-05-10T01:24:52.658Z,1007.09
2016-05-10T01:25:52.613Z,1007.12
2016-05-10T01:26:52.554Z,1007.12
2016-05-10T01:27:49.509Z,1007.16
2016-05-10T01:28:49.465Z,1007.14
2016-05-10T01:29:52.421Z,1007.18
2016-05-10T01:30:49.392Z,1007.22
2016-05-10T01:31:49.332Z,1007.24
2016-05-10T01:32:49.289Z,1007.22
2016-05-10T01:33:49.260Z,1007.29
2016-05-10T01:34:49.215Z,1007.32
2016-05-10T01:35:49.156Z,1007.32
2016-05-10T01:36:49.112Z,1007.3
2016-05-10T01:37:49.067Z,1007.28
2016-05-10T01:38:49.023Z,1007.31
2016-05-10T01:39:48.995Z,1007.25
2016-05-10T01:40:48.936Z,1007.24
2016-05-10T01:41:48.906Z,1007.22
2016-05-10T01:42:48.862Z,1007.21
2016-05-10T01:43:48.818Z,1007.18
2016-05-10T01:44:49.086Z,1007.21
2016-05-10T01:45:48.730Z,1007.19
2016-05-10T01:46:48.686Z,1007.18
2016-05-10T01:47:48.642Z,1007.22
2016-05-10T01:48:48.597Z,1007.25
2016-05-10T01:49:48.552Z,1007.27
2016-05-10T01:50:51.508Z,1007.25
2016-05-10T01:51:51.480Z,1007.24
2016-05-10T01:52:48.405Z,1007.24
2016-05-10T01:53:48.377Z,1007.22
2016-05-10T01:54:51.348Z,1007.18
2016-05-10T01:55:51.304Z,1007.18
2016-05-10T01:56:48.243Z,1007.17
2016-05-10T01:57:57.200Z,1007.19
2016-05-10T01:58:51.155Z,1007.16
2016-05-10T01:59:51.127Z,1007.21
2016-05-10T02:00:48.082Z,1007.21
2016-05-10T02:01:48.023Z,1007.19
2016-05-10T02:02:47.978Z,1007.2
2016-05-10T02:03:47.934Z,1007.19
2016-05-10T02:04:47.890Z,1007.2
2016-05-10T02:05:47.862Z,1007.22
2016-05-10T02:06:47.802Z,1007.17
2016-05-10T02:07:47.758Z,1007.19
2016-05-10T02:08:47.713Z,1007.17
2016-05-10T02:09:47.684Z,1007.18
2016-05-10T02:10:47.625Z,1007.15
2016-05-10T02:11:47.581Z,1007.14
2016-05-10T02:12:50.553Z,1007.12
2016-05-10T02:13:50.508Z,1007.16
2016-05-10T02:14:50.464Z,1007.14
2016-05-10T02:15:47.404Z,1007.15
2016-05-10T02:16:47.360Z,1007.15
2016-05-10T02:17:47.316Z,1007.15
2016-05-10T02:18:47.272Z,1007.18
2016-05-10T02:19:47.227Z,1007.13
2016-05-10T02:20:47.183Z,1007.13
2016-05-10T02:21:47.155Z,1007.13
2016-05-10T02:22:47.110Z,1007.1
2016-05-10T02:23:50.066Z,1007.05
2016-05-10T02:24:47.022Z,1007.08
2016-05-10T02:25:46.963Z,1007.03
2016-05-10T02:26:46.934Z,1007.07
2016-05-10T02:27:46.890Z,1007.09
2016-05-10T02:28:46.846Z,1007.06
2016-05-10T02:29:47.004Z,1007.03
2016-05-10T02:30:46.757Z,1007.02
2016-05-10T02:31:46.712Z,1007.01
2016-05-10T02:32:46.668Z,1006.97
2016-05-10T02:33:46.624Z,1006.94
2016-05-10T02:34:46.581Z,1006.96
2016-05-10T02:35:46.521Z,1006.93
2016-05-10T02:36:49.492Z,1006.97
2016-05-10T02:37:49.447Z,1006.94
2016-05-10T02:38:55.419Z,1006.92
2016-05-10T02:39:46.359Z,1006.91
2016-05-10T02:40:46.315Z,1006.89
2016-05-10T02:41:49.271Z,1006.94
2016-05-10T02:42:46.227Z,1006.95
2016-05-10T02:43:55.183Z,1006.91
2016-05-10T02:44:46.357Z,1006.9
2016-05-10T02:45:49.111Z,1006.9
2016-05-10T02:46:46.128Z,1006.87
2016-05-10T02:47:49.005Z,1006.84
2016-05-10T02:48:45.978Z,1006.88
2016-05-10T02:49:45.917Z,1006.88
2016-05-10T02:50:45.873Z,1006.9
2016-05-10T02:51:45.830Z,1006.92
2016-05-10T02:52:45.785Z,1006.87
2016-05-10T02:53:45.741Z,1006.88
2016-05-10T02:54:45.697Z,1006.83
2016-05-10T02:55:45.652Z,1006.82
2016-05-10T02:56:45.608Z,1006.75
2016-05-10T02:57:45.563Z,1006.77
2016-05-10T02:58:48.520Z,1006.75
2016-05-10T02:59:45.476Z,1006.72
2016-05-10T03:00:45.431Z,1006.74
2016-05-10T03:01:45.388Z,1006.74
2016-05-10T03:02:48.343Z,1006.71
2016-05-10T03:03:45.299Z,1006.68
2016-05-10T03:04:48.270Z,1006.68
2016-05-10T03:05:45.210Z,1006.73
2016-05-10T03:06:45.167Z,1006.73
2016-05-10T03:07:45.122Z,1006.73
2016-05-10T03:08:45.078Z,1006.74
2016-05-10T03:09:45.034Z,1006.73
2016-05-10T03:10:44.989Z,1006.72
2016-05-10T03:11:44.961Z,1006.72
2016-05-10T03:12:44.901Z,1006.7
2016-05-10T03:13:44.857Z,1006.73
2016-05-10T03:14:45.813Z,1006.75
2016-05-10T03:15:44.769Z,1006.77
2016-05-10T03:16:44.724Z,1006.73
2016-05-10T03:17:44.681Z,1006.73
2016-05-10T03:18:44.636Z,1006.77
2016-05-10T03:19:44.591Z,1006.75
2016-05-10T03:20:44.548Z,1006.78
2016-05-10T03:21:47.503Z,1006.69
2016-05-10T03:22:44.459Z,1006.77
2016-05-10T03:23:44.415Z,1006.73
2016-05-10T03:24:44.371Z,1006.69
2016-05-10T03:25:44.327Z,1006.69
2016-05-10T03:26:44.283Z,1006.7
2016-05-10T03:27:44.238Z,1006.64
2016-05-10T03:28:44.194Z,1006.63
2016-05-10T03:29:44.150Z,1006.64
2016-05-10T03:30:44.106Z,1006.67
2016-05-10T03:31:44.077Z,1006.66
2016-05-10T03:32:44.018Z,1006.63
2016-05-10T03:33:43.973Z,1006.62
2016-05-10T03:34:44.132Z,1006.63
2016-05-10T03:35:43.901Z,1006.64
2016-05-10T03:36:43.840Z,1006.66
2016-05-10T03:37:43.797Z,1006.62
2016-05-10T03:38:43.752Z,1006.63
2016-05-10T03:39:46.708Z,1006.64
2016-05-10T03:40:43.664Z,1006.63
2016-05-10T03:41:46.636Z,1006.64
2016-05-10T03:42:46.576Z,1006.64
2016-05-10T03:43:43.531Z,1006.6
2016-05-10T03:44:43.487Z,1006.63
2016-05-10T03:45:43.443Z,1006.61
2016-05-10T03:46:43.399Z,1006.63
2016-05-10T03:47:43.355Z,1006.58
2016-05-10T03:48:43.311Z,1006.6
2016-05-10T03:49:43.267Z,1006.58
2016-05-10T03:50:43.222Z,1006.58
2016-05-10T03:51:43.177Z,1006.55
2016-05-10T03:52:43.133Z,1006.55
2016-05-10T03:53:43.089Z,1006.53
2016-05-10T03:54:43.046Z,1006.53
2016-05-10T03:55:43.002Z,1006.52
2016-05-10T03:56:42.958Z,1006.46
2016-05-10T03:57:45.929Z,1006.47
2016-05-10T03:58:45.868Z,1006.47
2016-05-10T03:59:43.012Z,1006.48
2016-05-10T04:00:42.780Z,1006.52
2016-05-10T04:01:42.736Z,1006.51
2016-05-10T04:02:42.692Z,1006.49
2016-05-10T04:03:42.648Z,1006.5
2016-05-10T04:04:45.634Z,1006.52
2016-05-10T04:05:42.559Z,1006.5
2016-05-10T04:06:42.515Z,1006.53
2016-05-10T04:07:42.471Z,1006.55
2016-05-10T04:08:42.427Z,1006.49
2016-05-10T04:09:42.382Z,1006.47
2016-05-10T04:10:42.323Z,1006.49
2016-05-10T04:11:42.295Z,1006.45
2016-05-10T04:12:42.234Z,1006.46
2016-05-10T04:13:42.190Z,1006.45
2016-05-10T04:14:42.162Z,1006.46
2016-05-10T04:15:45.133Z,1006.43
2016-05-10T04:16:45.073Z,1006.38
2016-05-10T04:17:42.014Z,1006.37
2016-05-10T04:18:44.985Z,1006.35
2016-05-10T04:19:44.941Z,1006.34
2016-05-10T04:20:41.880Z,1006.29
2016-05-10T04:21:41.868Z,1006.31
2016-05-10T04:22:41.808Z,1006.28
2016-05-10T04:23:44.764Z,1006.3
2016-05-10T04:24:41.705Z,1006.27
2016-05-10T04:25:41.661Z,1006.28
2016-05-10T04:26:41.632Z,1006.29
2016-05-10T04:27:41.571Z,1006.29
2016-05-10T04:28:41.527Z,1006.29
2016-05-10T04:29:41.483Z,1006.29
2016-05-10T04:30:41.439Z,1006.3
2016-05-10T04:31:41.396Z,1006.32
2016-05-10T04:32:41.351Z,1006.28
2016-05-10T04:33:41.321Z,1006.3
2016-05-10T04:34:41.279Z,1006.28
2016-05-10T04:35:41.218Z,1006.24
2016-05-10T04:36:41.174Z,1006.32
2016-05-10T04:37:41.130Z,1006.29
2016-05-10T04:38:41.085Z,1006.29
2016-05-10T04:39:44.042Z,1006.27
2016-05-10T04:40:40.997Z,1006.28
2016-05-10T04:41:41.156Z,1006.25
2016-05-10T04:42:40.909Z,1006.27
2016-05-10T04:43:40.865Z,1006.26
2016-05-10T04:44:43.837Z,1006.24
2016-05-10T04:45:40.776Z,1006.24
2016-05-10T04:46:40.731Z,1006.24
2016-05-10T04:47:40.688Z,1006.24
2016-05-10T04:48:40.644Z,1006.27
2016-05-10T04:49:40.600Z,1006.26
2016-05-10T04:50:40.556Z,1006.25
2016-05-10T04:51:40.511Z,1006.31
2016-05-10T04:52:40.466Z,1006.33
2016-05-10T04:53:40.422Z,1006.32
2016-05-10T04:54:43.378Z,1006.33
2016-05-10T04:55:43.538Z,1006.36
2016-05-10T04:56:40.290Z,1006.38
2016-05-10T04:57:43.247Z,1006.42
2016-05-10T04:58:43.202Z,1006.4
2016-05-10T04:59:43.377Z,1006.41
2016-05-10T05:00:40.114Z,1006.45
2016-05-10T05:01:40.069Z,1006.42
2016-05-10T05:02:40.010Z,1006.42
2016-05-10T05:03:39.965Z,1006.43
2016-05-10T05:04:39.921Z,1006.43
2016-05-10T05:05:39.877Z,1006.41
2016-05-10T05:06:40.051Z,1006.42
2016-05-10T05:07:39.804Z,1006.42
2016-05-10T05:08:39.760Z,1006.44
2016-05-10T05:09:39.700Z,1006.43
2016-05-10T05:10:39.672Z,1006.43
2016-05-10T05:11:39.612Z,1006.46
2016-05-10T05:12:39.583Z,1006.42
2016-05-10T05:13:42.540Z,1006.4
2016-05-10T05:14:48.698Z,1006.47
2016-05-10T05:15:39.450Z,1006.48
2016-05-10T05:16:39.392Z,1006.46
2016-05-10T05:17:39.347Z,1006.46
2016-05-10T05:18:39.303Z,1006.49
2016-05-10T05:19:39.258Z,1006.44
2016-05-10T05:20:39.214Z,1006.47
2016-05-10T05:21:39.170Z,1006.44
2016-05-10T05:22:39.125Z,1006.47
2016-05-10T05:23:39.081Z,1006.43
2016-05-10T05:24:39.038Z,1006.43
2016-05-10T05:25:38.994Z,1006.46
2016-05-10T05:26:38.949Z,1006.43
2016-05-10T05:27:41.921Z,1006.48
2016-05-10T05:28:41.876Z,1006.45
2016-05-10T05:29:38.816Z,1006.45
2016-05-10T05:30:38.772Z,1006.45
2016-05-10T05:31:38.727Z,1006.44
2016-05-10T05:32:38.685Z,1006.45
2016-05-10T05:33:38.641Z,1006.44
2016-05-10T05:34:38.596Z,1006.41
2016-05-10T05:35:38.551Z,1006.38
2016-05-10T05:36:38.507Z,1006.42
2016-05-10T05:37:38.463Z,1006.42
2016-05-10T05:38:38.418Z,1006.4
2016-05-10T05:39:38.374Z,1006.38
2016-05-10T05:40:38.534Z,1006.39
2016-05-10T05:41:38.302Z,1006.38
2016-05-10T05:42:38.242Z,1006.38
2016-05-10T05:43:38.198Z,1006.37
2016-05-10T05:44:38.560Z,1006.41
2016-05-10T05:45:38.109Z,1006.37
2016-05-10T05:46:38.065Z,1006.39
2016-05-10T05:47:38.021Z,1006.36
2016-05-10T05:48:40.992Z,1006.38
2016-05-10T05:49:40.934Z,1006.38
2016-05-10T05:50:40.904Z,1006.43
2016-05-10T05:51:38.047Z,1006.43
2016-05-10T05:52:40.800Z,1006.43
2016-05-10T05:53:37.756Z,1006.46
2016-05-10T05:54:37.711Z,1006.5
2016-05-10T05:55:37.667Z,1006.49
2016-05-10T05:56:37.624Z,1006.5
2016-05-10T05:57:37.579Z,1006.5
2016-05-10T05:58:37.535Z,1006.5
2016-05-10T05:59:37.491Z,1006.51
2016-05-10T06:00:37.447Z,1006.46
2016-05-10T06:01:37.402Z,1006.49
2016-05-10T06:02:37.358Z,1006.49
2016-05-10T06:03:37.314Z,1006.51
2016-05-10T06:04:37.271Z,1006.47
2016-05-10T06:05:40.429Z,1006.5
2016-05-10T06:06:37.182Z,1006.46
2016-05-10T06:07:37.138Z,1006.54
2016-05-10T06:08:37.110Z,1006.49
2016-05-10T06:09:40.048Z,1006.5
2016-05-10T06:10:40.004Z,1006.5
2016-05-10T06:11:39.945Z,1006.55
2016-05-10T06:12:36.917Z,1006.57
2016-05-10T06:13:36.873Z,1006.54
2016-05-10T06:14:37.141Z,1006.52
2016-05-10T06:15:36.784Z,1006.52
2016-05-10T06:16:36.739Z,1006.5
2016-05-10T06:17:36.695Z,1006.54
2016-05-10T06:18:36.651Z,1006.51
2016-05-10T06:19:36.607Z,1006.48
2016-05-10T06:20:36.564Z,1006.5
2016-05-10T06:21:36.520Z,1006.54
2016-05-10T06:22:39.490Z,1006.54
2016-05-10T06:23:36.431Z,1006.54
2016-05-10T06:24:39.402Z,1006.53
2016-05-10T06:25:39.545Z,1006.57
2016-05-10T06:26:39.297Z,1006.55
2016-05-10T06:27:39.254Z,1006.56
2016-05-10T06:28:39.225Z,1006.59
2016-05-10T06:29:36.166Z,1006.56
2016-05-10T06:30:36.230Z,1006.54
2016-05-10T06:31:39.078Z,1006.6
2016-05-10T06:32:36.048Z,1006.57
2016-05-10T06:33:45.191Z,1006.58
2016-05-10T06:34:35.944Z,1006.57
2016-05-10T06:35:35.932Z,1006.6
2016-05-10T06:36:35.856Z,1006.57
2016-05-10T06:37:35.813Z,1006.61
2016-05-10T06:38:35.768Z,1006.59
2016-05-10T06:39:35.723Z,1006.57
2016-05-10T06:40:35.710Z,1006.58
2016-05-10T06:41:35.635Z,1006.56
2016-05-10T06:42:35.591Z,1006.61
2016-05-10T06:43:35.547Z,1006.57
2016-05-10T06:44:35.518Z,1006.59
2016-05-10T06:45:35.474Z,1006.61
2016-05-10T06:46:35.415Z,1006.57
2016-05-10T06:47:35.386Z,1006.59
2016-05-10T06:48:38.342Z,1006.58
2016-05-10T06:49:38.298Z,1006.6
2016-05-10T06:50:35.237Z,1006.61
2016-05-10T06:51:35.209Z,1006.57
2016-05-10T06:52:35.150Z,1006.6
2016-05-10T06:53:35.106Z,1006.61
2016-05-10T06:54:35.076Z,1006.61
2016-05-10T06:55:35.032Z,1006.6
2016-05-10T06:56:34.972Z,1006.58
2016-05-10T06:57:34.944Z,1006.6
2016-05-10T06:58:34.884Z,1006.57
2016-05-10T06:59:34.996Z,1006.59
2016-05-10T07:00:34.811Z,1006.55
2016-05-10T07:01:34.766Z,1006.55
2016-05-10T07:02:34.723Z,1006.56
2016-05-10T07:03:34.679Z,1006.54
2016-05-10T07:04:34.635Z,1006.57
2016-05-10T07:05:34.590Z,1006.51
2016-05-10T07:06:34.546Z,1006.54
2016-05-10T07:07:34.721Z,1006.58
2016-05-10T07:08:34.457Z,1006.57
2016-05-10T07:09:34.414Z,1006.55
2016-05-10T07:10:34.369Z,1006.58
2016-05-10T07:11:34.356Z,1006.6
2016-05-10T07:12:34.374Z,1006.58
2016-05-10T07:13:34.252Z,1006.6
2016-05-10T07:14:34.209Z,1006.61
2016-05-10T07:15:34.149Z,1006.61
2016-05-10T07:16:34.104Z,1006.66
2016-05-10T07:17:34.076Z,1006.59
2016-05-10T07:18:34.031Z,1006.64
2016-05-10T07:19:33.973Z,1006.6
2016-05-10T07:20:34.193Z,1006.61
2016-05-10T07:21:36.898Z,1006.62
2016-05-10T07:22:33.855Z,1006.67
2016-05-10T07:23:33.811Z,1006.64
2016-05-10T07:24:36.767Z,1006.64
2016-05-10T07:25:36.739Z,1006.66
2016-05-10T07:26:33.678Z,1006.62
2016-05-10T07:27:36.650Z,1006.64
2016-05-10T07:28:33.605Z,1006.62
2016-05-10T07:29:33.561Z,1006.68
2016-05-10T07:30:33.532Z,1006.62
2016-05-10T07:31:33.472Z,1006.66
2016-05-10T07:32:33.428Z,1006.66
2016-05-10T07:33:33.588Z,1006.66
2016-05-10T07:34:36.341Z,1006.63
2016-05-10T07:35:33.608Z,1006.67
2016-05-10T07:36:33.283Z,1006.66
2016-05-10T07:37:33.238Z,1006.68
2016-05-10T07:38:33.398Z,1006.63
2016-05-10T07:39:33.166Z,1006.65
2016-05-10T07:40:33.090Z,1006.65
2016-05-10T07:41:33.484Z,1006.6
2016-05-10T07:42:33.002Z,1006.66
2016-05-10T07:43:32.943Z,1006.67
2016-05-10T07:44:33.368Z,1006.64
2016-05-10T07:45:32.868Z,1006.64
2016-05-10T07:46:32.823Z,1006.7
2016-05-10T07:47:32.779Z,1006.68
2016-05-10T07:48:32.734Z,1006.68
2016-05-10T07:49:32.690Z,1006.67
2016-05-10T07:50:32.646Z,1006.64
2016-05-10T07:51:32.602Z,1006.63
2016-05-10T07:52:32.761Z,1006.66
2016-05-10T07:53:32.514Z,1006.63
2016-05-10T07:54:32.485Z,1006.66
2016-05-10T07:55:35.428Z,1006.68
2016-05-10T07:56:32.381Z,1006.66
2016-05-10T07:57:32.353Z,1006.68
2016-05-10T07:58:32.324Z,1006.68
2016-05-10T07:59:32.264Z,1006.67
2016-05-10T08:00:32.205Z,1006.65
2016-05-10T08:01:32.191Z,1006.69
2016-05-10T08:02:32.131Z,1006.67
2016-05-10T08:03:32.103Z,1006.69
2016-05-10T08:04:32.043Z,1006.69
2016-05-10T08:05:31.999Z,1006.69
2016-05-10T08:06:31.986Z,1006.71
2016-05-10T08:07:31.911Z,1006.7
2016-05-10T08:08:31.882Z,1006.7
2016-05-10T08:09:34.825Z,1006.8
2016-05-10T08:10:34.780Z,1006.76
2016-05-10T08:11:34.752Z,1006.7
2016-05-10T08:12:31.690Z,1006.71
2016-05-10T08:13:31.693Z,1006.67
2016-05-10T08:14:32.679Z,1006.73
2016-05-10T08:15:31.573Z,1006.71
2016-05-10T08:16:31.513Z,1006.72
2016-05-10T08:17:34.487Z,1006.74
2016-05-10T08:18:31.440Z,1006.69
2016-05-10T08:19:31.396Z,1006.66
2016-05-10T08:20:31.352Z,1006.64
2016-05-10T08:21:31.307Z,1006.66
2016-05-10T08:22:31.310Z,1006.69
2016-05-10T08:23:34.235Z,1006.7
2016-05-10T08:24:31.176Z,1006.72
2016-05-10T08:25:31.147Z,1006.77
2016-05-10T08:26:31.305Z,1006.74
2016-05-10T08:27:31.058Z,1006.7
2016-05-10T08:28:31.014Z,1006.69
2016-05-10T08:29:31.173Z,1006.72
2016-05-10T08:30:30.941Z,1006.71
2016-05-10T08:31:31.084Z,1006.75
2016-05-10T08:32:34.056Z,1006.78
2016-05-10T08:33:34.136Z,1006.78
2016-05-10T08:34:30.765Z,1006.74
2016-05-10T08:35:30.752Z,1006.71
2016-05-10T08:36:33.707Z,1006.75
2016-05-10T08:37:30.632Z,1006.75
2016-05-10T08:38:30.791Z,1006.72
2016-05-10T08:39:30.543Z,1006.73
2016-05-10T08:40:30.499Z,1006.72
2016-05-10T08:41:30.471Z,1006.72
2016-05-10T08:42:30.426Z,1006.71
2016-05-10T08:43:30.382Z,1006.7
2016-05-10T08:44:30.338Z,1006.71
2016-05-10T08:45:30.294Z,1006.72
2016-05-10T08:46:30.249Z,1006.7
2016-05-10T08:47:30.206Z,1006.7
2016-05-10T08:48:30.209Z,1006.73
2016-05-10T08:49:30.133Z,1006.68
2016-05-10T08:50:30.276Z,1006.72
2016-05-10T08:51:30.248Z,1006.72
2016-05-10T08:52:30.251Z,1006.71
2016-05-10T08:53:29.957Z,1006.72
2016-05-10T08:54:29.912Z,1006.74
2016-05-10T08:55:29.915Z,1006.71
2016-05-10T08:56:29.824Z,1006.67
2016-05-10T08:57:29.779Z,1006.66
2016-05-10T08:58:29.751Z,1006.68
2016-05-10T08:59:29.925Z,1006.67
2016-05-10T09:00:32.662Z,1006.67
2016-05-10T09:01:29.603Z,1006.67
2016-05-10T09:02:29.777Z,1006.73
2016-05-10T09:03:29.530Z,1006.7
2016-05-10T09:04:29.485Z,1006.7
2016-05-10T09:05:29.457Z,1006.73
2016-05-10T09:06:29.398Z,1006.71
2016-05-10T09:07:29.353Z,1006.67
2016-05-10T09:08:29.325Z,1006.62
2016-05-10T09:09:29.297Z,1006.67
2016-05-10T09:10:29.424Z,1006.66
2016-05-10T09:11:37.524Z,1006.69
2016-05-10T09:12:40.197Z,1006.68
2016-05-10T09:13:29.119Z,1006.63
2016-05-10T09:14:29.279Z,1006.66
2016-05-10T09:15:29.016Z,1006.68
2016-05-10T09:16:28.971Z,1006.73
2016-05-10T09:17:28.943Z,1006.7
2016-05-10T09:18:28.899Z,1006.66
2016-05-10T09:19:28.907Z,1006.65
2016-05-10T09:20:28.889Z,1006.66
2016-05-10T09:21:28.886Z,1006.69
2016-05-10T09:22:28.883Z,1006.7
2016-05-10T09:23:28.896Z,1006.63
2016-05-10T09:24:28.869Z,1006.65
2016-05-10T09:25:28.840Z,1006.62
2016-05-10T09:26:28.812Z,1006.6
2016-05-10T09:27:28.783Z,1006.64
2016-05-10T09:28:28.768Z,1006.65
2016-05-10T09:29:28.731Z,1006.65
2016-05-10T09:30:29.786Z,1006.67
2016-05-10T09:31:28.653Z,1006.68
2016-05-10T09:32:28.818Z,1006.7
2016-05-10T09:33:28.669Z,1006.69
2016-05-10T09:34:31.737Z,1006.71
2016-05-10T09:35:28.538Z,1006.71
2016-05-10T09:36:28.480Z,1006.7
2016-05-10T09:37:28.625Z,1006.7
2016-05-10T09:38:28.365Z,1006.7
2016-05-10T09:39:28.399Z,1006.75
2016-05-10T09:40:28.294Z,1006.74
2016-05-10T09:41:28.250Z,1006.77
2016-05-10T09:42:28.207Z,1006.74
2016-05-10T09:43:28.180Z,1006.71
2016-05-10T09:44:31.135Z,1006.76
2016-05-10T09:45:28.092Z,1006.74
2016-05-10T09:46:28.250Z,1006.75
2016-05-10T09:47:28.004Z,1006.74
2016-05-10T09:48:27.960Z,1006.77
2016-05-10T09:49:31.009Z,1006.74
2016-05-10T09:50:28.075Z,1006.7
2016-05-10T09:51:28.045Z,1006.66
2016-05-10T09:52:30.814Z,1006.65
2016-05-10T09:53:30.958Z,1006.69
2016-05-10T09:54:30.726Z,1006.7
2016-05-10T09:55:27.666Z,1006.67
2016-05-10T09:56:27.622Z,1006.67
2016-05-10T09:57:27.594Z,1006.67
2016-05-10T09:58:27.627Z,1006.64
2016-05-10T09:59:30.506Z,1006.64
2016-05-10T10:00:27.508Z,1006.67
2016-05-10T10:01:27.433Z,1006.7
2016-05-10T10:02:27.388Z,1006.7
2016-05-10T10:03:27.360Z,1006.7
2016-05-10T10:04:27.300Z,1006.63
2016-05-10T10:05:27.271Z,1006.63
2016-05-10T10:06:27.227Z,1006.6
2016-05-10T10:07:27.183Z,1006.65
2016-05-10T10:08:27.123Z,1006.61
2016-05-10T10:09:27.095Z,1006.57
2016-05-10T10:10:27.254Z,1006.58
2016-05-10T10:11:27.007Z,1006.58
2016-05-10T10:12:26.963Z,1006.55
2016-05-10T10:13:26.918Z,1006.55
2016-05-10T10:14:27.265Z,1006.53
2016-05-10T10:15:27.048Z,1006.54
2016-05-10T10:16:26.801Z,1006.55
2016-05-10T10:17:26.773Z,1006.54
2016-05-10T10:18:26.712Z,1006.55
2016-05-10T10:19:26.887Z,1006.57
2016-05-10T10:20:26.639Z,1006.55
2016-05-10T10:21:26.674Z,1006.54
2016-05-10T10:22:26.551Z,1006.52
2016-05-10T10:23:26.507Z,1006.54
2016-05-10T10:24:26.478Z,1006.51
2016-05-10T10:25:26.420Z,1006.52
2016-05-10T10:26:26.390Z,1006.52
2016-05-10T10:27:26.346Z,1006.49
2016-05-10T10:28:26.303Z,1006.52
2016-05-10T10:29:26.476Z,1006.49
2016-05-10T10:30:26.229Z,1006.51
2016-05-10T10:31:26.185Z,1006.46
2016-05-10T10:32:26.141Z,1006.44
2016-05-10T10:33:26.097Z,1006.51
2016-05-10T10:34:26.052Z,1006.48
2016-05-10T10:35:26.024Z,1006.45
2016-05-10T10:36:25.964Z,1006.49
2016-05-10T10:37:29.154Z,1006.45
2016-05-10T10:38:25.922Z,1006.46
2016-05-10T10:39:26.050Z,1006.5
2016-05-10T10:40:25.818Z,1006.47
2016-05-10T10:41:25.806Z,1006.49
2016-05-10T10:42:25.761Z,1006.52
2016-05-10T10:43:25.749Z,1006.48
2016-05-10T10:44:25.939Z,1006.45
2016-05-10T10:45:25.598Z,1006.46
2016-05-10T10:46:25.569Z,1006.44
2016-05-10T10:47:25.525Z,1006.47
2016-05-10T10:48:25.481Z,1006.44
2016-05-10T10:49:25.451Z,1006.45
2016-05-10T10:50:25.393Z,1006.41
2016-05-10T10:51:25.365Z,1006.43
2016-05-10T10:52:25.320Z,1006.39
2016-05-10T10:53:28.276Z,1006.35
2016-05-10T10:54:25.231Z,1006.36
2016-05-10T10:55:25.187Z,1006.4
2016-05-10T10:56:25.189Z,1006.37
2016-05-10T10:57:25.301Z,1006.39
2016-05-10T10:58:25.054Z,1006.35
2016-05-10T10:59:25.026Z,1006.37
2016-05-10T11:00:25.185Z,1006.38
2016-05-10T11:01:24.984Z,1006.4
2016-05-10T11:02:24.894Z,1006.38
2016-05-10T11:03:24.897Z,1006.34
2016-05-10T11:04:24.853Z,1006.36
2016-05-10T11:05:24.808Z,1006.36
2016-05-10T11:06:24.951Z,1006.36
2016-05-10T11:07:24.750Z,1006.34
2016-05-10T11:08:24.644Z,1006.37
2016-05-10T11:09:24.708Z,1006.34
2016-05-10T11:10:24.571Z,1006.3
2016-05-10T11:11:24.527Z,1006.37
2016-05-10T11:12:24.499Z,1006.38
2016-05-10T11:13:24.454Z,1006.34
2016-05-10T11:14:24.441Z,1006.31
2016-05-10T11:15:24.366Z,1006.29
2016-05-10T11:16:24.321Z,1006.31
2016-05-10T11:17:24.277Z,1006.27
2016-05-10T11:18:24.249Z,1006.25
2016-05-10T11:19:27.221Z,1006.26
2016-05-10T11:20:27.410Z,1006.28
2016-05-10T11:21:27.132Z,1006.27
2016-05-10T11:22:24.088Z,1006.32
2016-05-10T11:23:24.044Z,1006.28
2016-05-10T11:24:23.999Z,1006.28
2016-05-10T11:25:23.987Z,1006.27
2016-05-10T11:26:23.912Z,1006.28
2016-05-10T11:27:23.882Z,1006.31
2016-05-10T11:28:23.839Z,1006.31
2016-05-10T11:29:23.795Z,1006.3
2016-05-10T11:30:23.781Z,1006.31
2016-05-10T11:31:23.706Z,1006.32
2016-05-10T11:32:23.677Z,1006.37
2016-05-10T11:33:23.664Z,1006.33
2016-05-10T11:34:23.588Z,1006.29
2016-05-10T11:35:23.560Z,1006.33
2016-05-10T11:36:23.516Z,1006.37
2016-05-10T11:37:23.472Z,1006.33
2016-05-10T11:38:23.427Z,1006.3
2016-05-10T11:39:23.383Z,1006.28
2016-05-10T11:40:23.355Z,1006.3
2016-05-10T11:41:23.311Z,1006.31
2016-05-10T11:42:23.267Z,1006.3
2016-05-10T11:43:23.222Z,1006.27
2016-05-10T11:44:23.209Z,1006.29
2016-05-10T11:45:23.150Z,1006.27
2016-05-10T11:46:23.138Z,1006.27
2016-05-10T11:47:23.061Z,1006.26
2016-05-10T11:48:23.033Z,1006.29
2016-05-10T11:49:22.973Z,1006.26
2016-05-10T11:50:22.944Z,1006.27
2016-05-10T11:51:22.901Z,1006.26
2016-05-10T11:52:22.856Z,1006.25
2016-05-10T11:53:22.812Z,1006.24
2016-05-10T11:54:22.799Z,1006.21
2016-05-10T11:55:22.739Z,1006.18
2016-05-10T11:56:22.695Z,1006.24
2016-05-10T11:57:22.651Z,1006.21
2016-05-10T11:58:22.622Z,1006.18
2016-05-10T11:59:22.562Z,1006.2
2016-05-10T12:00:22.518Z,1006.17
2016-05-10T12:01:22.489Z,1006.2
2016-05-10T12:02:22.461Z,1006.18
2016-05-10T12:03:22.416Z,1006.17
2016-05-10T12:04:22.403Z,1006.19
2016-05-10T12:05:22.328Z,1006.16
2016-05-10T12:06:22.331Z,1006.18
2016-05-10T12:07:22.287Z,1006.21
2016-05-10T12:08:22.211Z,1006.23